Time;durP1;ratioP1;P1;durP2;ratioP2;P2;SDS_P1;SDS_P2;PMS_P1;PMS_P2;Temp;Humidity;BMP_temperature;BMP_pressure;BME280_temperature;BME280_humidity;BME280_pressure;Samples;Min_cycle;Max_cycle;Signal;HPM_P1;HPM_P2
2022/05/05 00:01:43;;;;;;;6.57;5.28;;;;;;;;;;4896505;29;20020;-68
2022/05/05 00:04:10;;;;;;;8.25;5.05;;;;;;;;;;4897272;29;20046;-68
2022/05/05 00:06:36;;;;;;;5.47;4.70;;;;;;;;;;4897338;29;20024;-68
2022/05/05 00:09:03;;;;;;;9.85;5.18;;;;;;;;;;4897077;29;20052;-68
2022/05/05 00:14:24;;;;;;;13.65;6.00;;;;;;;;;;4896687;29;20494;-68
2022/05/05 00:17:10;;;;;;;7.15;5.85;;;;;;;;;;4896402;29;20394;-68
2022/05/05 00:19:38;;;;;;;6.68;5.93;;;;;;;;;;4896612;29;20047;-68
2022/05/05 00:22:05;;;;;;;7.00;5.93;;;;;;;;;;4881890;29;20450;-68
2022/05/05 00:24:32;;;;;;;6.88;5.82;;;;;;;;;;4893659;29;20037;-68
2022/05/05 00:26:59;;;;;;;7.75;6.05;;;;;;;;;;4896610;29;20025;-68
2022/05/05 00:29:25;;;;;;;10.43;5.72;;;;;;;;;;4896635;29;20445;-68
2022/05/05 00:31:52;;;;;;;7.50;6.60;;;;;;;;;;4896313;29;20024;-68
2022/05/05 00:34:18;;;;;;;9.88;5.47;;;;;;;;;;4896650;29;20083;-68
2022/05/05 00:36:45;;;;;;;12.23;6.22;;;;;;;;;;4896801;29;20482;-68
2022/05/05 00:39:11;;;;;;;7.93;5.78;;;;;;;;;;4896955;29;20050;-68
2022/05/05 00:41:39;;;;;;;10.90;5.95;;;;;;;;;;4896548;29;20023;-68
2022/05/05 00:44:06;;;;;;;8.07;6.07;;;;;;;;;;4896706;29;20137;-68
2022/05/05 00:46:33;;;;;;;9.27;6.03;;;;;;;;;;4896233;29;20025;-68
2022/05/05 00:49:00;;;;;;;10.90;5.60;;;;;;;;;;4895306;29;20032;-68
2022/05/05 00:51:26;;;;;;;8.10;5.97;;;;;;;;;;4897029;29;20039;-68
2022/05/05 00:53:54;;;;;;;8.15;6.50;;;;;;;;;;4896491;29;20382;-68
2022/05/05 00:56:21;;;;;;;12.23;7.00;;;;;;;;;;4896577;29;20028;-68
2022/05/05 00:58:48;;;;;;;8.85;6.88;;;;;;;;;;4895795;29;20404;-67
2022/05/05 01:01:15;;;;;;;11.25;7.03;;;;;;;;;;4896623;29;20024;-68
2022/05/05 01:03:42;;;;;;;8.77;6.03;;;;;;;;;;4911036;29;20033;-68
2022/05/05 01:06:08;;;;;;;9.02;6.93;;;;;;;;;;4896834;29;20035;-68
2022/05/05 01:08:34;;;;;;;9.80;6.55;;;;;;;;;;4896249;29;20393;-68
2022/05/05 01:11:01;;;;;;;8.20;6.40;;;;;;;;;;4896191;29;20021;-68
2022/05/05 01:13:28;;;;;;;12.38;7.28;;;;;;;;;;4899522;29;20033;-68
2022/05/05 01:15:55;;;;;;;7.93;7.07;;;;;;;;;;4900193;29;20036;-68
2022/05/05 01:18:21;;;;;;;8.10;7.00;;;;;;;;;;4900584;29;20103;-68
2022/05/05 01:20:49;;;;;;;11.00;7.68;;;;;;;;;;4899522;29;20079;-68
2022/05/05 01:23:15;;;;;;;9.25;6.60;;;;;;;;;;4899622;29;20028;-68
2022/05/05 01:28:31;;;;;;;12.90;7.15;;;;;;;;;;4899657;29;20039;-68
2022/05/05 01:30:58;;;;;;;8.27;7.07;;;;;;;;;;4914345;29;20029;-69
2022/05/05 01:33:25;;;;;;;7.47;6.53;;;;;;;;;;4900106;29;20418;-69
2022/05/05 01:35:56;;;;;;;10.98;7.15;;;;;;;;;;4899502;29;20032;-70
2022/05/05 01:38:23;;;;;;;9.27;6.63;;;;;;;;;;4899242;29;20055;-69
2022/05/05 01:40:50;;;;;;;7.88;6.22;;;;;;;;;;4899364;29;20047;-69
2022/05/05 01:43:17;;;;;;;8.10;7.22;;;;;;;;;;4913610;29;20028;-70
2022/05/05 01:45:44;;;;;;;9.52;7.00;;;;;;;;;;4899412;29;20039;-70
2022/05/05 01:48:10;;;;;;;10.77;6.25;;;;;;;;;;4899772;29;20508;-70
2022/05/05 01:50:37;;;;;;;9.73;6.25;;;;;;;;;;4899127;29;20029;-69
2022/05/05 01:53:04;;;;;;;13.80;6.50;;;;;;;;;;4899139;29;20028;-69
2022/05/05 01:55:31;;;;;;;7.97;6.25;;;;;;;;;;4899223;29;20012;-70
2022/05/05 01:57:58;;;;;;;9.73;6.72;;;;;;;;;;4898679;29;20088;-70
2022/05/05 02:00:25;;;;;;;9.55;6.05;;;;;;;;;;4899959;29;20028;-70
2022/05/05 02:02:52;;;;;;;10.68;6.78;;;;;;;;;;4898958;29;20034;-69
2022/05/05 02:05:18;;;;;;;9.23;6.40;;;;;;;;;;4899208;29;20029;-69
2022/05/05 02:07:45;;;;;;;8.38;6.20;;;;;;;;;;4898962;29;20032;-69
2022/05/05 02:10:14;;;;;;;8.07;6.25;;;;;;;;;;4898850;29;20039;-69
2022/05/05 02:12:40;;;;;;;7.30;5.80;;;;;;;;;;4898988;29;20496;-69
2022/05/05 02:15:08;;;;;;;6.95;5.18;;;;;;;;;;4899059;29;20516;-70
2022/05/05 02:17:34;;;;;;;11.60;6.45;;;;;;;;;;4899081;29;20039;-69
2022/05/05 02:20:01;;;;;;;12.00;5.95;;;;;;;;;;4897254;29;20044;-69
2022/05/05 02:22:30;;;;;;;7.30;5.25;;;;;;;;;;4898500;29;20036;-69
2022/05/05 02:24:56;;;;;;;10.40;5.50;;;;;;;;;;4897817;29;20025;-69
2022/05/05 02:27:23;;;;;;;10.93;6.55;;;;;;;;;;4898850;29;20032;-69
2022/05/05 02:29:50;;;;;;;6.65;5.93;;;;;;;;;;4898475;29;20076;-69
2022/05/05 02:32:16;;;;;;;11.30;6.03;;;;;;;;;;4898293;29;20405;-69
2022/05/05 02:34:43;;;;;;;8.90;6.15;;;;;;;;;;4898445;29;20024;-69
2022/05/05 02:40:09;;;;;;;7.63;5.78;;;;;;;;;;4881592;29;20041;-69
2022/05/05 02:42:35;;;;;;;7.72;6.50;;;;;;;;;;4893520;29;20499;-69
2022/05/05 02:45:01;;;;;;;7.90;5.65;;;;;;;;;;4901548;29;20041;-69
2022/05/05 02:47:28;;;;;;;10.65;6.57;;;;;;;;;;4891614;29;20060;-69
2022/05/05 02:49:54;;;;;;;11.48;6.63;;;;;;;;;;4911381;29;20045;-69
2022/05/05 02:52:20;;;;;;;6.53;5.43;;;;;;;;;;4896204;29;20567;-69
2022/05/05 02:54:53;;;;;;;11.07;5.20;;;;;;;;;;4895900;29;20037;-68
2022/05/05 02:57:20;;;;;;;5.75;4.38;;;;;;;;;;4896558;29;20055;-69
2022/05/05 02:59:50;;;;;;;5.20;4.68;;;;;;;;;;4895485;29;20049;-69
2022/05/05 03:02:17;;;;;;;5.53;4.95;;;;;;;;;;4895479;29;20044;-69
2022/05/05 03:04:43;;;;;;;8.93;4.80;;;;;;;;;;4895486;29;20035;-69
2022/05/05 03:07:10;;;;;;;6.18;5.22;;;;;;;;;;4895789;29;20033;-69
2022/05/05 03:09:36;;;;;;;8.70;4.78;;;;;;;;;;4892716;29;20047;-69
2022/05/05 03:12:03;;;;;;;6.22;4.50;;;;;;;;;;4895996;29;20036;-69
2022/05/05 03:14:29;;;;;;;9.48;5.18;;;;;;;;;;4895334;29;20020;-69
2022/05/05 03:16:55;;;;;;;7.82;5.13;;;;;;;;;;4889354;29;20039;-69
2022/05/05 03:19:22;;;;;;;7.35;4.88;;;;;;;;;;4897694;29;20041;-69
2022/05/05 03:21:48;;;;;;;6.80;5.10;;;;;;;;;;4897747;29;20054;-69
2022/05/05 03:24:14;;;;;;;7.82;5.82;;;;;;;;;;4897784;29;20028;-69
2022/05/05 03:26:40;;;;;;;7.15;5.90;;;;;;;;;;4897533;29;20032;-69
2022/05/05 03:29:07;;;;;;;6.43;5.65;;;;;;;;;;4897829;29;20083;-69
2022/05/05 03:31:33;;;;;;;11.18;5.88;;;;;;;;;;4897531;29;20474;-69
2022/05/05 03:34:00;;;;;;;5.53;4.82;;;;;;;;;;4897655;29;20028;-69
2022/05/05 03:36:26;;;;;;;6.18;5.45;;;;;;;;;;4897847;29;20393;-69
2022/05/05 03:38:54;;;;;;;5.93;5.25;;;;;;;;;;4896881;29;20062;-68
2022/05/05 03:41:20;;;;;;;5.55;4.95;;;;;;;;;;4897538;29;20028;-69
2022/05/05 03:43:46;;;;;;;8.57;5.57;;;;;;;;;;4897152;29;20837;-69
2022/05/05 03:46:13;;;;;;;6.50;5.40;;;;;;;;;;4911747;29;20028;-69
2022/05/05 03:48:39;;;;;;;6.05;5.03;;;;;;;;;;4897386;29;20031;-69
2022/05/05 03:51:06;;;;;;;6.15;5.55;;;;;;;;;;4897617;29;20040;-69
2022/05/05 03:53:32;;;;;;;7.22;5.38;;;;;;;;;;4896806;29;20035;-69
2022/05/05 03:55:59;;;;;;;8.52;5.85;;;;;;;;;;4911614;29;20036;-69
2022/05/05 03:58:28;;;;;;;7.45;5.53;;;;;;;;;;4896991;29;20043;-69
2022/05/05 04:00:55;;;;;;;6.55;5.47;;;;;;;;;;4911638;29;20438;-69
2022/05/05 04:03:34;;;;;;;9.75;6.03;;;;;;;;;;4897459;29;20062;-69
2022/05/05 04:06:05;;;;;;;13.20;5.63;;;;;;;;;;4897056;29;20032;-69
2022/05/05 04:08:32;;;;;;;9.93;5.32;;;;;;;;;;4896415;29;20027;-68
2022/05/05 04:10:59;;;;;;;10.32;6.15;;;;;;;;;;4896784;29;20055;-69
2022/05/05 04:13:25;;;;;;;7.18;6.07;;;;;;;;;;4896872;29;20035;-69
2022/05/05 04:15:52;;;;;;;13.50;6.50;;;;;;;;;;4897113;29;20025;-69
2022/05/05 04:18:18;;;;;;;7.38;6.03;;;;;;;;;;4897485;29;20028;-68
2022/05/05 04:20:47;;;;;;;7.45;6.50;;;;;;;;;;4896754;29;20040;-69
2022/05/05 04:23:13;;;;;;;7.80;5.97;;;;;;;;;;4896323;29;20023;-69
2022/05/05 04:25:43;;;;;;;6.95;5.90;;;;;;;;;;4896654;29;20041;-69
2022/05/05 04:28:10;;;;;;;10.00;6.25;;;;;;;;;;4896771;29;20029;-69
2022/05/05 04:30:38;;;;;;;9.35;6.00;;;;;;;;;;4897068;29;20036;-69
2022/05/05 04:33:04;;;;;;;9.50;5.55;;;;;;;;;;4896862;29;20033;-69
2022/05/05 04:35:31;;;;;;;11.75;6.45;;;;;;;;;;4896443;29;20445;-69
2022/05/05 04:37:58;;;;;;;6.82;5.88;;;;;;;;;;4896002;29;20386;-69
2022/05/05 04:40:24;;;;;;;8.60;6.07;;;;;;;;;;4896614;29;20039;-69
2022/05/05 04:42:51;;;;;;;7.30;5.88;;;;;;;;;;4896591;29;20043;-69
2022/05/05 04:45:17;;;;;;;7.80;6.40;;;;;;;;;;4897012;29;20036;-69
2022/05/05 04:47:43;;;;;;;9.35;6.82;;;;;;;;;;4898816;29;20396;-69
2022/05/05 04:50:10;;;;;;;7.85;6.55;;;;;;;;;;4900329;29;20112;-69
2022/05/05 04:52:36;;;;;;;10.75;5.97;;;;;;;;;;4900301;29;20039;-69
2022/05/05 04:55:03;;;;;;;7.15;6.10;;;;;;;;;;4900396;29;20482;-69
2022/05/05 04:57:29;;;;;;;10.10;6.50;;;;;;;;;;4900740;29;20362;-68
2022/05/05 04:59:55;;;;;;;7.57;6.13;;;;;;;;;;4899920;29;20045;-69
2022/05/05 05:02:22;;;;;;;16.48;7.22;;;;;;;;;;4900064;29;20485;-69
2022/05/05 05:04:48;;;;;;;9.30;6.63;;;;;;;;;;4900269;29;20062;-69
2022/05/05 05:07:14;;;;;;;8.60;6.57;;;;;;;;;;4899629;29;20508;-69
2022/05/05 05:09:41;;;;;;;17.05;7.65;;;;;;;;;;4899012;29;20049;-69
2022/05/05 05:12:07;;;;;;;9.57;7.22;;;;;;;;;;4900421;29;20029;-69
2022/05/05 05:14:34;;;;;;;10.73;6.82;;;;;;;;;;4899967;29;20393;-69
2022/05/05 05:17:00;;;;;;;10.98;6.45;;;;;;;;;;4900097;29;20028;-69
2022/05/05 05:19:27;;;;;;;8.30;6.50;;;;;;;;;;4899784;29;20040;-69
2022/05/05 05:21:54;;;;;;;9.30;6.43;;;;;;;;;;4899384;29;20054;-69
2022/05/05 05:24:20;;;;;;;12.15;7.43;;;;;;;;;;4900371;29;20497;-69
2022/05/05 05:26:46;;;;;;;9.02;7.25;;;;;;;;;;4899784;29;20466;-69
2022/05/05 05:29:13;;;;;;;10.63;7.35;;;;;;;;;;4899598;29;20738;-69
2022/05/05 05:31:39;;;;;;;8.80;7.20;;;;;;;;;;4899832;29;20040;-69
2022/05/05 05:34:05;;;;;;;9.48;7.30;;;;;;;;;;4899726;29;20016;-68
2022/05/05 05:36:32;;;;;;;10.77;7.78;;;;;;;;;;4899864;29;20037;-69
2022/05/05 05:38:58;;;;;;;13.38;7.25;;;;;;;;;;4899334;29;20210;-69
2022/05/05 05:41:24;;;;;;;10.60;7.57;;;;;;;;;;4899633;29;20044;-69
2022/05/05 05:43:51;;;;;;;8.95;7.38;;;;;;;;;;4929784;29;20032;-69
2022/05/05 05:46:17;;;;;;;10.60;7.50;;;;;;;;;;4899649;29;20033;-69
2022/05/05 05:48:43;;;;;;;9.02;7.47;;;;;;;;;;4899191;29;20486;-69
2022/05/05 05:51:10;;;;;;;14.80;7.88;;;;;;;;;;4899952;29;20025;-69
2022/05/05 05:53:36;;;;;;;12.45;7.50;;;;;;;;;;4899379;29;20047;-69
2022/05/05 05:56:03;;;;;;;10.20;7.60;;;;;;;;;;4899155;29;20021;-69
2022/05/05 05:58:29;;;;;;;12.25;7.95;;;;;;;;;;4898848;29;20036;-69
2022/05/05 06:00:55;;;;;;;11.90;8.30;;;;;;;;;;4899235;29;20021;-69
2022/05/05 06:06:07;;;;;;;11.05;8.35;;;;;;;;;;4899269;29;20405;-69
2022/05/05 06:08:34;;;;;;;10.30;8.52;;;;;;;;;;4898926;29;20037;-69
2022/05/05 06:11:00;;;;;;;10.20;8.35;;;;;;;;;;4898916;29;20027;-69
2022/05/05 06:13:26;;;;;;;10.18;8.98;;;;;;;;;;4898961;29;20506;-69
2022/05/05 06:15:53;;;;;;;9.80;8.48;;;;;;;;;;4899253;29;20641;-69
2022/05/05 06:18:19;;;;;;;14.40;8.90;;;;;;;;;;4898911;29;20330;-69
2022/05/05 06:20:45;;;;;;;9.68;8.15;;;;;;;;;;4897388;29;20065;-69
2022/05/05 06:23:12;;;;;;;11.57;8.75;;;;;;;;;;4898678;29;20033;-69
2022/05/05 06:25:39;;;;;;;10.63;8.52;;;;;;;;;;4898596;29;20039;-69
2022/05/05 06:28:05;;;;;;;9.35;8.23;;;;;;;;;;4898769;29;20019;-69
2022/05/05 06:30:31;;;;;;;9.25;8.02;;;;;;;;;;4899335;29;20032;-69
2022/05/05 06:32:58;;;;;;;10.65;7.75;;;;;;;;;;4898349;29;20027;-69
2022/05/05 06:35:25;;;;;;;12.00;9.52;;;;;;;;;;4898386;29;20024;-69
2022/05/05 06:37:51;;;;;;;12.02;9.23;;;;;;;;;;4898499;29;20021;-69
2022/05/05 06:40:18;;;;;;;22.60;9.48;;;;;;;;;;4925374;29;20046;-69
2022/05/05 06:42:44;;;;;;;10.77;8.90;;;;;;;;;;4897442;29;20033;-69
2022/05/05 06:45:11;;;;;;;10.70;8.40;;;;;;;;;;4897669;29;20038;-69
2022/05/05 06:47:38;;;;;;;13.13;8.65;;;;;;;;;;4896517;29;20039;-69
2022/05/05 06:50:04;;;;;;;16.67;8.15;;;;;;;;;;4897880;29;20035;-69
2022/05/05 06:52:30;;;;;;;15.23;8.50;;;;;;;;;;4905243;29;20025;-69
2022/05/05 06:54:57;;;;;;;14.20;7.50;;;;;;;;;;4897432;29;20493;-69
2022/05/05 06:57:23;;;;;;;7.97;7.03;;;;;;;;;;4898284;29;20029;-69
2022/05/05 06:59:49;;;;;;;11.07;7.38;;;;;;;;;;4897363;29;20041;-69
2022/05/05 07:02:16;;;;;;;8.40;7.00;;;;;;;;;;4897306;29;20036;-69
2022/05/05 07:07:41;;;;;;;9.20;7.05;;;;;;;;;;4895183;29;20502;-69
2022/05/05 07:12:53;;;;;;;8.68;7.63;;;;;;;;;;4895192;29;20028;-69
2022/05/05 07:15:19;;;;;;;7.72;6.97;;;;;;;;;;4895812;29;20040;-69
2022/05/05 07:17:46;;;;;;;8.70;7.05;;;;;;;;;;4895002;29;20048;-69
2022/05/05 07:20:12;;;;;;;8.43;7.45;;;;;;;;;;4894363;29;20037;-69
2022/05/05 07:22:40;;;;;;;12.23;7.93;;;;;;;;;;4895162;29;20461;-69
2022/05/05 07:25:07;;;;;;;10.07;8.40;;;;;;;;;;4895256;29;20054;-69
2022/05/05 07:27:33;;;;;;;11.73;8.20;;;;;;;;;;4894370;29;20024;-69
2022/05/05 07:29:59;;;;;;;12.05;9.07;;;;;;;;;;4890928;29;20499;-69
2022/05/05 07:32:26;;;;;;;12.15;8.63;;;;;;;;;;4889748;29;20032;-69
2022/05/05 07:34:52;;;;;;;8.73;7.45;;;;;;;;;;4894516;29;20043;-69
2022/05/05 07:37:18;;;;;;;9.35;6.82;;;;;;;;;;4895031;29;20100;-69
2022/05/05 07:39:45;;;;;;;7.78;6.47;;;;;;;;;;4894346;29;20037;-69
2022/05/05 07:42:11;;;;;;;7.97;5.90;;;;;;;;;;4893772;29;20037;-69
2022/05/05 07:44:37;;;;;;;12.60;6.55;;;;;;;;;;4893808;29;20020;-67
2022/05/05 07:47:04;;;;;;;9.07;5.55;;;;;;;;;;4896559;29;20039;-68
2022/05/05 07:49:30;;;;;;;9.00;6.05;;;;;;;;;;4896617;29;20029;-67
2022/05/05 07:51:56;;;;;;;6.65;6.05;;;;;;;;;;4896497;29;20054;-67
2022/05/05 07:54:35;;;;;;;11.13;5.68;;;;;;;;;;4896942;29;20099;-67
2022/05/05 07:57:02;;;;;;;10.18;6.30;;;;;;;;;;4896505;29;20028;-67
2022/05/05 07:59:28;;;;;;;10.88;6.43;;;;;;;;;;4896024;29;20029;-67
2022/05/05 08:01:54;;;;;;;7.57;6.50;;;;;;;;;;4896266;29;20029;-69
2022/05/05 08:04:21;;;;;;;10.73;7.03;;;;;;;;;;4896400;29;20024;-69
2022/05/05 08:06:47;;;;;;;10.68;6.35;;;;;;;;;;4896539;29;20043;-69
2022/05/05 08:09:13;;;;;;;10.80;6.50;;;;;;;;;;4896771;29;20532;-69
2022/05/05 08:11:40;;;;;;;7.93;7.03;;;;;;;;;;4896018;29;20028;-69
2022/05/05 08:14:07;;;;;;;16.17;7.45;;;;;;;;;;4896246;29;20025;-69
2022/05/05 08:16:34;;;;;;;9.90;6.85;;;;;;;;;;4896389;29;20042;-69
2022/05/05 08:19:01;;;;;;;10.25;7.40;;;;;;;;;;4895989;29;20035;-69
2022/05/05 08:21:27;;;;;;;12.57;6.43;;;;;;;;;;4896889;29;20049;-69
2022/05/05 08:28:28;;;;;;;7.30;6.57;;;;;;;;;;4895858;29;20029;-69
2022/05/05 08:29:25;;;;;;;13.63;7.88;;;;;;;;;;4893893;29;20023;-69
2022/05/05 08:31:52;;;;;;;8.65;7.28;;;;;;;;;;4895992;29;20088;-69
2022/05/05 08:34:18;;;;;;;9.55;7.57;;;;;;;;;;4896290;29;20021;-69
2022/05/05 08:36:44;;;;;;;8.77;7.22;;;;;;;;;;4896121;29;20457;-69
2022/05/05 08:39:11;;;;;;;7.60;6.65;;;;;;;;;;4896200;29;20051;-69
2022/05/05 08:41:40;;;;;;;11.43;7.70;;;;;;;;;;4895905;29;20032;-69
2022/05/05 08:44:06;;;;;;;9.13;7.47;;;;;;;;;;4895452;29;20042;-69
2022/05/05 08:46:33;;;;;;;10.80;6.85;;;;;;;;;;4895952;29;20023;-67
2022/05/05 08:49:06;;;;;;;8.75;6.75;;;;;;;;;;4896115;29;20032;-69
2022/05/05 08:51:46;;;;;;;8.93;7.20;;;;;;;;;;4896319;29;20032;-69
2022/05/05 08:54:16;;;;;;;10.98;6.68;;;;;;;;;;4895971;29;20509;-67
2022/05/05 08:56:43;;;;;;;7.50;6.17;;;;;;;;;;4895905;29;20023;-67
2022/05/05 08:59:11;;;;;;;9.90;6.22;;;;;;;;;;4895314;29;20029;-67
2022/05/05 09:01:38;;;;;;;6.40;5.80;;;;;;;;;;4895677;29;20032;-67
2022/05/05 09:04:05;;;;;;;7.40;6.03;;;;;;;;;;4881199;29;20047;-67
2022/05/05 09:06:47;;;;;;;6.10;5.03;;;;;;;;;;4896274;29;20024;-67
2022/05/05 09:09:29;;;;;;;6.18;5.57;;;;;;;;;;4896184;29;20035;-67
2022/05/05 09:12:11;;;;;;;7.20;5.53;;;;;;;;;;4895368;29;20025;-67
2022/05/05 09:14:47;;;;;;;5.93;5.00;;;;;;;;;;4895499;29;20091;-67
2022/05/05 09:17:14;;;;;;;6.30;4.60;;;;;;;;;;4895638;29;20092;-67
2022/05/05 09:19:41;;;;;;;7.45;5.20;;;;;;;;;;4895297;29;20051;-67
2022/05/05 09:22:08;;;;;;;6.88;4.70;;;;;;;;;;4895466;29;20054;-67
2022/05/05 09:24:35;;;;;;;7.88;4.90;;;;;;;;;;4895391;29;20028;-67
2022/05/05 09:27:20;;;;;;;6.15;5.40;;;;;;;;;;4895266;29;20502;-67
2022/05/05 09:30:03;;;;;;;5.35;4.85;;;;;;;;;;4894423;29;20436;-67
2022/05/05 09:32:40;;;;;;;7.90;5.07;;;;;;;;;;4895886;29;20035;-67
2022/05/05 09:35:13;;;;;;;7.88;5.10;;;;;;;;;;4898740;29;20050;-67
2022/05/05 09:37:44;;;;;;;7.07;5.45;;;;;;;;;;4898841;29;20044;-67
2022/05/05 09:40:12;;;;;;;8.30;5.03;;;;;;;;;;4898721;29;20051;-67
2022/05/05 09:42:42;;;;;;;9.02;4.93;;;;;;;;;;4898928;29;20020;-67
2022/05/05 09:45:20;;;;;;;8.80;5.60;;;;;;;;;;4897902;29;20043;-67
2022/05/05 09:47:47;;;;;;;8.10;5.20;;;;;;;;;;4898538;29;20040;-67
2022/05/05 09:50:14;;;;;;;11.73;5.00;;;;;;;;;;4898653;29;20431;-67
2022/05/05 09:58:14;;;;;;;5.30;4.80;;;;;;;;;;4898623;29;20039;-67
2022/05/05 10:00:44;;;;;;;6.40;4.50;;;;;;;;;;4898539;29;20036;-68
2022/05/05 10:05:57;;;;;;;4.85;4.10;;;;;;;;;;4898140;29;20426;-68
2022/05/05 10:08:28;;;;;;;7.97;3.70;;;;;;;;;;4897255;29;20489;-67
2022/05/05 10:10:54;;;;;;;10.57;9.07;;;;;;;;;;4897845;29;20401;-67
2022/05/05 10:13:21;;;;;;;7.55;4.55;;;;;;;;;;4898201;29;20024;-67
2022/05/05 10:15:49;;;;;;;7.43;3.95;;;;;;;;;;4898776;29;20040;-67
2022/05/05 10:18:17;;;;;;;5.43;3.65;;;;;;;;;;4899183;29;20025;-68
2022/05/05 10:20:45;;;;;;;5.15;3.47;;;;;;;;;;4898171;29;20063;-67
2022/05/05 10:23:17;;;;;;;11.38;3.78;;;;;;;;;;4898298;29;20092;-67
2022/05/05 10:25:51;;;;;;;5.15;3.10;;;;;;;;;;4898169;29;20032;-67
2022/05/05 10:28:36;;;;;;;5.55;2.92;;;;;;;;;;4898243;29;20039;-68
2022/05/05 10:31:02;;;;;;;7.57;2.67;;;;;;;;;;4898242;29;20013;-67
2022/05/05 10:34:01;;;;;;;3.55;2.65;;;;;;;;;;4899055;29;20043;-67
2022/05/05 10:36:28;;;;;;;7.18;3.08;;;;;;;;;;4896613;29;20071;-68
2022/05/05 10:38:55;;;;;;;4.70;2.53;;;;;;;;;;4895104;29;20107;-67
2022/05/05 10:41:40;;;;;;;2.90;2.45;;;;;;;;;;4896028;29;20024;-67
2022/05/05 10:44:22;;;;;;;5.20;2.53;;;;;;;;;;4893225;29;20117;-68
2022/05/05 10:46:52;;;;;;;3.75;2.50;;;;;;;;;;4895742;29;20044;-67
2022/05/05 10:49:34;;;;;;;4.10;2.47;;;;;;;;;;4896049;29;20040;-67
2022/05/05 10:52:09;;;;;;;3.92;2.38;;;;;;;;;;4895654;29;20036;-67
2022/05/05 10:54:36;;;;;;;3.15;2.33;;;;;;;;;;4895984;29;20052;-67
2022/05/05 10:57:21;;;;;;;8.18;2.40;;;;;;;;;;4896005;29;20032;-67
2022/05/05 11:00:09;;;;;;;5.53;2.60;;;;;;;;;;4894691;29;20056;-67
2022/05/05 11:02:36;;;;;;;3.58;2.58;;;;;;;;;;4892406;29;20438;-67
2022/05/05 11:05:22;;;;;;;5.22;2.53;;;;;;;;;;4894472;29;20405;-67
2022/05/05 11:07:51;;;;;;;5.60;2.67;;;;;;;;;;4894690;29;20036;-67
2022/05/05 11:10:36;;;;;;;3.22;2.40;;;;;;;;;;4895242;29;20034;-67
2022/05/05 11:13:02;;;;;;;3.92;2.90;;;;;;;;;;4883718;29;20055;-67
2022/05/05 11:21:33;;;;;;;5.00;3.10;;;;;;;;;;4896752;29;20111;-67
2022/05/05 11:24:00;;;;;;;6.65;3.13;;;;;;;;;;4896459;29;20635;-67
2022/05/05 11:26:27;;;;;;;4.13;2.78;;;;;;;;;;4896863;29;20044;-67
2022/05/05 11:28:55;;;;;;;4.93;2.47;;;;;;;;;;4897231;29;20032;-67
2022/05/05 11:31:22;;;;;;;5.78;2.45;;;;;;;;;;4897170;29;20035;-67
2022/05/05 11:33:53;;;;;;;5.03;3.40;;;;;;;;;;4897241;29;20054;-67
2022/05/05 11:36:19;;;;;;;4.82;3.45;;;;;;;;;;4895576;29;20062;-67
2022/05/05 11:38:46;;;;;;;7.65;2.97;;;;;;;;;;4896136;29;20033;-67
2022/05/05 11:41:18;;;;;;;4.85;3.40;;;;;;;;;;4896758;29;20506;-67
2022/05/05 11:46:31;;;;;;;8.23;2.83;;;;;;;;;;4896739;29;20479;-67
2022/05/05 11:48:58;;;;;;;6.18;3.10;;;;;;;;;;4896786;29;20036;-67
2022/05/05 11:51:25;;;;;;;3.75;2.40;;;;;;;;;;4896974;29;20039;-67
2022/05/05 11:54:11;;;;;;;3.38;2.40;;;;;;;;;;4896227;29;20148;-67
2022/05/05 11:56:42;;;;;;;4.82;2.80;;;;;;;;;;4896343;29;20446;-67
2022/05/05 12:02:02;;;;;;;3.65;2.20;;;;;;;;;;4896516;29;20042;-67
2022/05/05 12:04:29;;;;;;;4.30;2.40;;;;;;;;;;4896653;29;20025;-67
2022/05/05 12:06:57;;;;;;;4.18;2.20;;;;;;;;;;4895864;29;20039;-67
2022/05/05 12:09:24;;;;;;;5.53;2.30;;;;;;;;;;4897112;29;20076;-67
2022/05/05 12:11:50;;;;;;;4.30;2.67;;;;;;;;;;4894064;29;20508;-67
2022/05/05 12:14:22;;;;;;;4.00;2.40;;;;;;;;;;4896266;29;20028;-67
2022/05/05 12:16:51;;;;;;;6.25;3.05;;;;;;;;;;4895792;29;20024;-67
2022/05/05 12:19:18;;;;;;;6.43;2.72;;;;;;;;;;4896252;29;20040;-68
2022/05/05 12:21:52;;;;;;;5.15;2.38;;;;;;;;;;4895897;29;20584;-67
2022/05/05 12:24:22;;;;;;;3.83;2.40;;;;;;;;;;4894109;29;20025;-67
2022/05/05 12:26:48;;;;;;;2.90;2.60;;;;;;;;;;4895329;29;20531;-67
2022/05/05 12:29:15;;;;;;;3.67;2.38;;;;;;;;;;4896191;29;20498;-68
2022/05/05 12:31:54;;;;;;;4.60;2.17;;;;;;;;;;4895934;29;20037;-68
2022/05/05 12:34:25;;;;;;;4.05;2.25;;;;;;;;;;4896111;29;20032;-68
2022/05/05 12:36:51;;;;;;;;;;;;;;;;;;4896262;29;20032;-68
2022/05/05 12:39:19;;;;;;;4.63;2.50;;;;;;;;;;4897274;29;19920;-68
2022/05/05 12:41:58;;;;;;;2.75;2.30;;;;;;;;;;4895626;29;20024;-67
2022/05/05 12:44:33;;;;;;;4.65;2.15;;;;;;;;;;4895283;29;20024;-68
2022/05/05 12:47:02;;;;;;;2.45;1.73;;;;;;;;;;4895631;29;20031;-68
2022/05/05 12:49:38;;;;;;;4.88;2.50;;;;;;;;;;4895806;29;20035;-67
2022/05/05 12:52:05;;;;;;;3.70;2.10;;;;;;;;;;4895585;29;20390;-68
2022/05/05 13:00:04;;;;;;;3.92;2.00;;;;;;;;;;4895819;29;20045;-67
2022/05/05 13:02:30;;;;;;;4.95;2.70;;;;;;;;;;4925975;29;20036;-67
2022/05/05 13:04:57;;;;;;;3.50;2.03;;;;;;;;;;4894833;29;20031;-67
2022/05/05 13:07:24;;;;;;;5.70;1.98;;;;;;;;;;4895918;29;20040;-67
2022/05/05 13:09:51;;;;;;;4.80;2.17;;;;;;;;;;4899701;29;20029;-68
2022/05/05 13:12:17;;;;;;;2.67;2.20;;;;;;;;;;4900352;29;20033;-67
2022/05/05 13:14:44;;;;;;;5.82;1.88;;;;;;;;;;4899288;29;20025;-67
2022/05/05 13:17:10;;;;;;;3.88;1.88;;;;;;;;;;4899327;29;20033;-67
2022/05/05 13:19:36;;;;;;;2.80;2.00;;;;;;;;;;4899152;29;20413;-67
2022/05/05 13:22:03;;;;;;;5.18;1.77;;;;;;;;;;4898729;29;20044;-68
2022/05/05 13:24:29;;;;;;;2.75;1.95;;;;;;;;;;4899671;29;20028;-67
2022/05/05 13:26:58;;;;;;;2.25;1.50;;;;;;;;;;4899054;29;20024;-67
2022/05/05 13:29:24;;;;;;;4.25;1.70;;;;;;;;;;4899079;29;20027;-68
2022/05/05 13:31:50;;;;;;;4.82;1.85;;;;;;;;;;4898781;29;20030;-67
2022/05/05 13:34:17;;;;;;;4.57;1.73;;;;;;;;;;4898659;29;20028;-68
2022/05/05 13:36:43;;;;;;;5.05;1.77;;;;;;;;;;4899045;29;20024;-67
2022/05/05 13:39:09;;;;;;;5.25;1.75;;;;;;;;;;4897880;29;20520;-68
2022/05/05 13:41:36;;;;;;;3.50;1.60;;;;;;;;;;4898734;29;20401;-68
2022/05/05 13:44:03;;;;;;;4.40;1.83;;;;;;;;;;4898916;29;20401;-67
2022/05/05 13:46:30;;;;;;;7.45;2.10;;;;;;;;;;4897771;29;20036;-67
2022/05/05 13:48:57;;;;;;;2.28;1.77;;;;;;;;;;4898067;29;20079;-68
2022/05/05 13:51:23;;;;;;;4.07;1.90;;;;;;;;;;4899255;29;20397;-67
2022/05/05 13:53:49;;;;;;;2.47;1.70;;;;;;;;;;4898346;29;20046;-68
2022/05/05 13:56:16;;;;;;;7.45;1.90;;;;;;;;;;4898404;29;20502;-67
2022/05/05 13:58:43;;;;;;;6.07;1.60;;;;;;;;;;4898651;29;20033;-68
2022/05/05 14:01:09;;;;;;;6.95;2.00;;;;;;;;;;4913014;29;20020;-68
2022/05/05 14:03:35;;;;;;;3.83;1.58;;;;;;;;;;4898805;29;20032;-68
2022/05/05 14:06:02;;;;;;;2.53;1.50;;;;;;;;;;4898561;29;20512;-68
2022/05/05 14:13:58;;;;;;;2.75;1.73;;;;;;;;;;4898103;29;20037;-68
2022/05/05 14:16:26;;;;;;;4.03;1.88;;;;;;;;;;4898279;29;20068;-68
2022/05/05 14:18:53;;;;;;;7.80;1.70;;;;;;;;;;4897754;29;20374;-67
2022/05/05 14:21:19;;;;;;;3.78;1.83;;;;;;;;;;4898770;29;20050;-68
2022/05/05 14:23:46;;;;;;;2.92;1.55;;;;;;;;;;4897895;29;20040;-68
2022/05/05 14:26:12;;;;;;;3.33;1.90;;;;;;;;;;4897837;29;20031;-67
2022/05/05 14:28:39;;;;;;;2.45;1.90;;;;;;;;;;4897953;29;20104;-68
2022/05/05 14:31:05;;;;;;;4.68;1.92;;;;;;;;;;4898097;29;20032;-67
2022/05/05 14:33:31;;;;;;;4.22;1.80;;;;;;;;;;4898560;29;20056;-68
2022/05/05 14:35:58;;;;;;;3.75;1.40;;;;;;;;;;4898129;29;20031;-68
2022/05/05 14:38:24;;;;;;;5.18;1.35;;;;;;;;;;4897376;29;20025;-68
2022/05/05 14:40:50;;;;;;;3.13;1.25;;;;;;;;;;4897792;29;20036;-68
2022/05/05 14:43:17;;;;;;;2.17;1.40;;;;;;;;;;4897906;29;20024;-67
2022/05/05 14:45:44;;;;;;;2.30;1.50;;;;;;;;;;4897596;29;20044;-67
2022/05/05 14:48:11;;;;;;;4.20;1.48;;;;;;;;;;4897116;29;20036;-67
2022/05/05 14:50:37;;;;;;;3.15;1.70;;;;;;;;;;4898098;29;20414;-68
2022/05/05 14:53:03;;;;;;;3.35;1.70;;;;;;;;;;4897701;29;20024;-67
2022/05/05 14:55:30;;;;;;;2.85;1.63;;;;;;;;;;4897919;29;20028;-67
2022/05/05 14:57:57;;;;;;;4.22;1.70;;;;;;;;;;4897752;29;20044;-67
2022/05/05 15:00:24;;;;;;;3.70;1.67;;;;;;;;;;4896990;29;20037;-69
2022/05/05 15:02:50;;;;;;;3.83;1.63;;;;;;;;;;4897845;29;20025;-70
2022/05/05 15:05:16;;;;;;;3.25;1.38;;;;;;;;;;4897570;29;20025;-69
2022/05/05 15:07:43;;;;;;;1.52;1.23;;;;;;;;;;4897809;29;20025;-68
2022/05/05 15:10:10;;;;;;;3.72;1.50;;;;;;;;;;4897873;29;20039;-69
2022/05/05 15:12:36;;;;;;;2.33;1.50;;;;;;;;;;4898361;29;20025;-70
2022/05/05 15:15:03;;;;;;;2.30;1.40;;;;;;;;;;4897489;29;20029;-68
2022/05/05 15:17:29;;;;;;;3.67;1.40;;;;;;;;;;4897084;29;20021;-69
2022/05/05 15:19:56;;;;;;;2.05;1.23;;;;;;;;;;4897006;29;20048;-68
2022/05/05 15:22:22;;;;;;;3.72;1.40;;;;;;;;;;4897777;29;20038;-69
2022/05/05 15:25:09;;;;;;;2.58;1.33;;;;;;;;;;4897375;29;20043;-69
2022/05/05 15:27:36;;;;;;;2.50;1.48;;;;;;;;;;4897685;29;20516;-69
2022/05/05 15:30:03;;;;;;;2.97;1.50;;;;;;;;;;4896771;29;20458;-69
2022/05/05 15:32:30;;;;;;;2.97;1.45;;;;;;;;;;4896868;29;20016;-67
2022/05/05 15:35:03;;;;;;;1.92;1.30;;;;;;;;;;4897185;29;20037;-68
2022/05/05 15:37:30;;;;;;;1.38;1.20;;;;;;;;;;4895474;29;20097;-68